sensor_id;sensor_type;location;lat;lon;timestamp;pressure;altitude;pressure_sealevel;temperature;humidity
76229;BME280;65021;53.174;18.160;2023-04-19T00:00:05;101988.49;;;4.00;66.67
76229;BME280;65021;53.174;18.160;2023-04-19T00:02:54;101984.45;;;3.91;65.99
76229;BME280;65021;53.174;18.160;2023-04-19T00:05:21;101982.25;;;3.85;66.68
76229;BME280;65021;53.174;18.160;2023-04-19T00:07:49;101984.98;;;3.81;66.52
76229;BME280;65021;53.174;18.160;2023-04-19T00:10:16;101978.76;;;3.74;66.58
76229;BME280;65021;53.174;18.160;2023-04-19T00:12:43;101983.16;;;3.68;66.75
76229;BME280;65021;53.174;18.160;2023-04-19T00:15:10;101976.76;;;3.64;67.91
76229;BME280;65021;53.174;18.160;2023-04-19T00:17:37;101975.69;;;3.62;67.30
76229;BME280;65021;53.174;18.160;2023-04-19T00:20:04;101971.73;;;3.59;68.10
76229;BME280;65021;53.174;18.160;2023-04-19T00:22:33;101967.55;;;3.55;67.73
76229;BME280;65021;53.174;18.160;2023-04-19T00:25:01;101965.86;;;3.49;67.36
76229;BME280;65021;53.174;18.160;2023-04-19T00:27:28;101957.34;;;3.42;68.00
76229;BME280;65021;53.174;18.160;2023-04-19T00:29:54;101953.14;;;3.37;67.69
76229;BME280;65021;53.174;18.160;2023-04-19T00:32:22;101951.94;;;3.31;67.67
76229;BME280;65021;53.174;18.160;2023-04-19T00:34:49;101947.57;;;3.27;68.36
76229;BME280;65021;53.174;18.160;2023-04-19T00:37:16;101941.35;;;3.24;68.48
76229;BME280;65021;53.174;18.160;2023-04-19T00:39:42;101935.98;;;3.19;68.65
76229;BME280;65021;53.174;18.160;2023-04-19T00:42:09;101934.84;;;3.15;68.67
76229;BME280;65021;53.174;18.160;2023-04-19T00:44:35;101926.56;;;3.11;69.67
76229;BME280;65021;53.174;18.160;2023-04-19T00:47:02;101923.10;;;3.07;69.93
76229;BME280;65021;53.174;18.160;2023-04-19T00:49:29;101922.33;;;3.04;69.89
76229;BME280;65021;53.174;18.160;2023-04-19T00:51:56;101915.98;;;3.01;69.81
76229;BME280;65021;53.174;18.160;2023-04-19T00:54:23;101917.38;;;2.96;69.08
76229;BME280;65021;53.174;18.160;2023-04-19T00:56:50;101919.85;;;2.94;70.19
76229;BME280;65021;53.174;18.160;2023-04-19T00:59:17;101917.27;;;2.92;69.98
76229;BME280;65021;53.174;18.160;2023-04-19T01:01:44;101919.80;;;2.89;70.21
76229;BME280;65021;53.174;18.160;2023-04-19T01:04:11;101918.42;;;2.87;70.55
76229;BME280;65021;53.174;18.160;2023-04-19T01:06:39;101917.05;;;2.83;71.10
76229;BME280;65021;53.174;18.160;2023-04-19T01:09:05;101916.15;;;2.80;71.87
76229;BME280;65021;53.174;18.160;2023-04-19T01:11:32;101912.45;;;2.78;72.42
76229;BME280;65021;53.174;18.160;2023-04-19T01:13:59;101909.44;;;2.76;71.57
76229;BME280;65021;53.174;18.160;2023-04-19T01:16:26;101904.91;;;2.72;71.71
76229;BME280;65021;53.174;18.160;2023-04-19T01:18:53;101904.54;;;2.69;72.83
76229;BME280;65021;53.174;18.160;2023-04-19T01:21:20;101899.05;;;2.67;72.05
76229;BME280;65021;53.174;18.160;2023-04-19T01:23:47;101893.38;;;2.62;72.75
76229;BME280;65021;53.174;18.160;2023-04-19T01:26:14;101890.04;;;2.59;73.23
76229;BME280;65021;53.174;18.160;2023-04-19T01:28:41;101889.35;;;2.57;73.88
76229;BME280;65021;53.174;18.160;2023-04-19T01:31:08;101885.74;;;2.53;73.68
76229;BME280;65021;53.174;18.160;2023-04-19T01:33:35;101880.48;;;2.50;73.13
76229;BME280;65021;53.174;18.160;2023-04-19T01:36:01;101878.01;;;2.45;73.00
76229;BME280;65021;53.174;18.160;2023-04-19T01:38:28;101874.90;;;2.42;74.04
76229;BME280;65021;53.174;18.160;2023-04-19T01:40:55;101874.45;;;2.39;74.99
76229;BME280;65021;53.174;18.160;2023-04-19T01:43:23;101869.16;;;2.38;74.78
76229;BME280;65021;53.174;18.160;2023-04-19T01:45:49;101865.21;;;2.35;75.50
76229;BME280;65021;53.174;18.160;2023-04-19T01:48:16;101861.60;;;2.35;75.06
76229;BME280;65021;53.174;18.160;2023-04-19T01:50:42;101855.73;;;2.33;74.62
76229;BME280;65021;53.174;18.160;2023-04-19T01:53:09;101857.28;;;2.33;75.10
76229;BME280;65021;53.174;18.160;2023-04-19T01:55:36;101854.25;;;2.30;74.53
76229;BME280;65021;53.174;18.160;2023-04-19T01:58:03;101852.45;;;2.28;75.11
76229;BME280;65021;53.174;18.160;2023-04-19T02:00:29;101856.43;;;2.27;75.36
76229;BME280;65021;53.174;18.160;2023-04-19T02:02:56;101858.15;;;2.28;74.40
76229;BME280;65021;53.174;18.160;2023-04-19T02:05:23;101847.77;;;2.29;75.00
76229;BME280;65021;53.174;18.160;2023-04-19T02:07:49;101844.36;;;2.29;73.93
76229;BME280;65021;53.174;18.160;2023-04-19T02:10:16;101846.58;;;2.27;74.19
76229;BME280;65021;53.174;18.160;2023-04-19T02:12:43;101840.62;;;2.25;74.92
76229;BME280;65021;53.174;18.160;2023-04-19T02:15:09;101840.05;;;2.23;75.66
76229;BME280;65021;53.174;18.160;2023-04-19T02:17:36;101842.76;;;2.21;75.74
76229;BME280;65021;53.174;18.160;2023-04-19T02:20:05;101843.00;;;2.21;75.81
76229;BME280;65021;53.174;18.160;2023-04-19T02:22:33;101843.85;;;2.22;75.76
76229;BME280;65021;53.174;18.160;2023-04-19T02:25:00;101840.20;;;2.23;75.40
76229;BME280;65021;53.174;18.160;2023-04-19T02:27:27;101836.45;;;2.29;76.82
76229;BME280;65021;53.174;18.160;2023-04-19T02:29:54;101833.48;;;2.34;76.70
76229;BME280;65021;53.174;18.160;2023-04-19T02:32:21;101830.10;;;2.40;77.67
76229;BME280;65021;53.174;18.160;2023-04-19T02:34:48;101831.94;;;2.45;77.70
76229;BME280;65021;53.174;18.160;2023-04-19T02:37:15;101826.89;;;2.49;76.57
76229;BME280;65021;53.174;18.160;2023-04-19T02:39:42;101823.39;;;2.55;76.25
76229;BME280;65021;53.174;18.160;2023-04-19T02:42:11;101826.23;;;2.60;77.66
76229;BME280;65021;53.174;18.160;2023-04-19T02:44:38;101826.48;;;2.63;76.91
76229;BME280;65021;53.174;18.160;2023-04-19T02:47:04;101822.33;;;2.64;76.34
76229;BME280;65021;53.174;18.160;2023-04-19T02:49:31;101822.23;;;2.63;77.55
76229;BME280;65021;53.174;18.160;2023-04-19T02:52:01;101813.81;;;2.61;77.05
76229;BME280;65021;53.174;18.160;2023-04-19T02:54:28;101806.76;;;2.61;76.58
76229;BME280;65021;53.174;18.160;2023-04-19T02:56:54;101802.52;;;2.61;77.23
76229;BME280;65021;53.174;18.160;2023-04-19T02:59:22;101798.39;;;2.62;77.27
76229;BME280;65021;53.174;18.160;2023-04-19T03:01:49;101796.98;;;2.67;77.72
76229;BME280;65021;53.174;18.160;2023-04-19T03:04:16;101795.93;;;2.71;77.61
76229;BME280;65021;53.174;18.160;2023-04-19T03:06:43;101792.49;;;2.76;78.60
76229;BME280;65021;53.174;18.160;2023-04-19T03:09:10;101786.33;;;2.82;77.92
76229;BME280;65021;53.174;18.160;2023-04-19T03:11:36;101780.73;;;2.87;77.85
76229;BME280;65021;53.174;18.160;2023-04-19T03:14:04;101774.77;;;2.95;78.70
76229;BME280;65021;53.174;18.160;2023-04-19T03:16:30;101770.70;;;3.03;77.82
76229;BME280;65021;53.174;18.160;2023-04-19T03:18:57;101770.45;;;3.10;77.08
76229;BME280;65021;53.174;18.160;2023-04-19T03:21:24;101765.91;;;3.17;77.51
76229;BME280;65021;53.174;18.160;2023-04-19T03:23:56;101763.42;;;3.25;77.47
76229;BME280;65021;53.174;18.160;2023-04-19T03:26:23;101756.81;;;3.33;77.99
76229;BME280;65021;53.174;18.160;2023-04-19T03:28:49;101757.66;;;3.40;77.52
76229;BME280;65021;53.174;18.160;2023-04-19T03:31:16;101761.23;;;3.47;77.28
76229;BME280;65021;53.174;18.160;2023-04-19T03:33:43;101762.73;;;3.53;77.24
76229;BME280;65021;53.174;18.160;2023-04-19T03:36:10;101766.06;;;3.57;77.77
76229;BME280;65021;53.174;18.160;2023-04-19T03:38:40;101763.59;;;3.61;77.42
76229;BME280;65021;53.174;18.160;2023-04-19T03:41:22;101762.35;;;3.64;78.69
76229;BME280;65021;53.174;18.160;2023-04-19T03:43:49;101759.07;;;3.66;77.80
76229;BME280;65021;53.174;18.160;2023-04-19T03:46:16;101763.80;;;3.67;77.39
76229;BME280;65021;53.174;18.160;2023-04-19T03:48:43;101754.36;;;3.70;77.67
76229;BME280;65021;53.174;18.160;2023-04-19T03:51:10;101752.67;;;3.71;77.88
76229;BME280;65021;53.174;18.160;2023-04-19T03:53:46;101752.39;;;3.74;79.90
76229;BME280;65021;53.174;18.160;2023-04-19T03:56:13;101744.89;;;3.77;79.83
76229;BME280;65021;53.174;18.160;2023-04-19T03:58:40;101746.21;;;3.81;78.88
76229;BME280;65021;53.174;18.160;2023-04-19T04:01:28;101748.84;;;3.87;78.28
76229;BME280;65021;53.174;18.160;2023-04-19T04:03:53;101747.52;;;3.93;78.83
76229;BME280;65021;53.174;18.160;2023-04-19T04:06:20;101742.63;;;3.99;79.06
76229;BME280;65021;53.174;18.160;2023-04-19T04:08:46;101744.08;;;4.04;78.61
76229;BME280;65021;53.174;18.160;2023-04-19T04:11:13;101738.78;;;4.08;78.92
76229;BME280;65021;53.174;18.160;2023-04-19T04:13:40;101739.29;;;4.12;79.10
76229;BME280;65021;53.174;18.160;2023-04-19T04:16:07;101743.80;;;4.16;78.98
76229;BME280;65021;53.174;18.160;2023-04-19T04:18:33;101746.01;;;4.20;78.52
76229;BME280;65021;53.174;18.160;2023-04-19T04:21:00;101750.69;;;4.25;78.32
76229;BME280;65021;53.174;18.160;2023-04-19T04:23:26;101750.02;;;4.28;79.31
76229;BME280;65021;53.174;18.160;2023-04-19T04:25:57;101744.64;;;4.30;79.06
76229;BME280;65021;53.174;18.160;2023-04-19T04:28:26;101747.83;;;4.32;79.50
76229;BME280;65021;53.174;18.160;2023-04-19T04:30:54;101747.45;;;4.35;78.97
76229;BME280;65021;53.174;18.160;2023-04-19T04:33:28;101744.55;;;4.38;79.36
76229;BME280;65021;53.174;18.160;2023-04-19T04:35:57;101742.30;;;4.40;79.37
76229;BME280;65021;53.174;18.160;2023-04-19T04:38:24;101735.35;;;4.41;79.19
76229;BME280;65021;53.174;18.160;2023-04-19T04:40:52;101743.14;;;4.44;79.08
76229;BME280;65021;53.174;18.160;2023-04-19T04:43:23;101744.95;;;4.45;79.37
76229;BME280;65021;53.174;18.160;2023-04-19T04:45:50;101743.08;;;4.47;78.87
76229;BME280;65021;53.174;18.160;2023-04-19T04:48:17;101746.95;;;4.50;79.50
76229;BME280;65021;53.174;18.160;2023-04-19T04:50:44;101745.42;;;4.52;79.46
76229;BME280;65021;53.174;18.160;2023-04-19T04:53:10;101746.54;;;4.53;79.37
76229;BME280;65021;53.174;18.160;2023-04-19T04:55:39;101748.26;;;4.55;79.48
76229;BME280;65021;53.174;18.160;2023-04-19T04:58:06;101746.92;;;4.56;78.96
76229;BME280;65021;53.174;18.160;2023-04-19T05:00:33;101742.44;;;4.59;78.88
76229;BME280;65021;53.174;18.160;2023-04-19T05:02:59;101741.05;;;4.61;78.95
76229;BME280;65021;53.174;18.160;2023-04-19T05:05:28;101735.57;;;4.65;78.77
76229;BME280;65021;53.174;18.160;2023-04-19T05:07:55;101734.06;;;4.70;78.83
76229;BME280;65021;53.174;18.160;2023-04-19T05:10:21;101735.05;;;4.76;78.63
76229;BME280;65021;53.174;18.160;2023-04-19T05:12:50;101729.52;;;4.82;78.32
76229;BME280;65021;53.174;18.160;2023-04-19T05:15:17;101729.59;;;4.89;78.27
76229;BME280;65021;53.174;18.160;2023-04-19T05:17:44;101735.06;;;4.92;78.20
76229;BME280;65021;53.174;18.160;2023-04-19T05:20:10;101728.79;;;4.94;77.85
76229;BME280;65021;53.174;18.160;2023-04-19T05:22:37;101728.59;;;4.97;77.85
76229;BME280;65021;53.174;18.160;2023-04-19T05:25:04;101723.14;;;5.03;77.79
76229;BME280;65021;53.174;18.160;2023-04-19T05:27:31;101721.52;;;5.10;77.89
76229;BME280;65021;53.174;18.160;2023-04-19T05:29:58;101714.80;;;5.12;77.60
76229;BME280;65021;53.174;18.160;2023-04-19T05:32:24;101708.27;;;5.14;77.64
76229;BME280;65021;53.174;18.160;2023-04-19T05:34:51;101709.95;;;5.15;77.47
76229;BME280;65021;53.174;18.160;2023-04-19T05:37:18;101711.41;;;5.17;77.31
76229;BME280;65021;53.174;18.160;2023-04-19T05:39:44;101695.71;;;5.13;77.29
76229;BME280;65021;53.174;18.160;2023-04-19T05:42:11;101693.04;;;5.08;77.21
76229;BME280;65021;53.174;18.160;2023-04-19T05:44:37;101690.06;;;5.05;77.22
76229;BME280;65021;53.174;18.160;2023-04-19T05:47:04;101684.84;;;5.02;77.03
76229;BME280;65021;53.174;18.160;2023-04-19T05:49:30;101682.84;;;5.01;77.22
76229;BME280;65021;53.174;18.160;2023-04-19T05:51:57;101678.18;;;5.01;77.20
76229;BME280;65021;53.174;18.160;2023-04-19T05:54:24;101678.30;;;5.04;77.02
76229;BME280;65021;53.174;18.160;2023-04-19T05:56:50;101678.70;;;5.10;76.73
76229;BME280;65021;53.174;18.160;2023-04-19T05:59:17;101675.90;;;5.20;76.55
76229;BME280;65021;53.174;18.160;2023-04-19T06:01:43;101678.70;;;5.36;76.20
76229;BME280;65021;53.174;18.160;2023-04-19T06:04:10;101681.77;;;5.50;75.81
76229;BME280;65021;53.174;18.160;2023-04-19T06:06:37;101677.59;;;5.62;75.85
76229;BME280;65021;53.174;18.160;2023-04-19T06:09:03;101679.64;;;5.69;75.61
76229;BME280;65021;53.174;18.160;2023-04-19T06:11:30;101690.81;;;5.80;75.67
76229;BME280;65021;53.174;18.160;2023-04-19T06:13:57;101697.61;;;5.85;75.75
76229;BME280;65021;53.174;18.160;2023-04-19T06:16:23;101695.52;;;5.88;75.83
76229;BME280;65021;53.174;18.160;2023-04-19T06:18:50;101689.58;;;5.82;75.70
76229;BME280;65021;53.174;18.160;2023-04-19T06:21:16;101691.41;;;5.74;75.52
76229;BME280;65021;53.174;18.160;2023-04-19T06:23:43;101692.35;;;5.65;75.61
76229;BME280;65021;53.174;18.160;2023-04-19T06:26:09;101692.44;;;5.55;75.56
76229;BME280;65021;53.174;18.160;2023-04-19T06:28:36;101691.98;;;5.47;75.70
76229;BME280;65021;53.174;18.160;2023-04-19T06:31:03;101690.73;;;5.41;75.85
76229;BME280;65021;53.174;18.160;2023-04-19T06:33:30;101688.66;;;5.34;75.99
76229;BME280;65021;53.174;18.160;2023-04-19T06:35:57;101690.13;;;5.28;76.21
76229;BME280;65021;53.174;18.160;2023-04-19T06:38:26;101682.27;;;5.24;76.40
76229;BME280;65021;53.174;18.160;2023-04-19T06:40:52;101672.33;;;5.22;76.36
76229;BME280;65021;53.174;18.160;2023-04-19T06:43:19;101666.73;;;5.26;76.39
76229;BME280;65021;53.174;18.160;2023-04-19T06:45:47;101663.68;;;5.32;76.78
76229;BME280;65021;53.174;18.160;2023-04-19T06:48:13;101656.09;;;5.35;76.78
76229;BME280;65021;53.174;18.160;2023-04-19T06:50:40;101656.89;;;5.31;77.71
76229;BME280;65021;53.174;18.160;2023-04-19T06:53:06;101653.02;;;5.24;78.52
76229;BME280;65021;53.174;18.160;2023-04-19T06:55:33;101658.05;;;5.20;77.89
76229;BME280;65021;53.174;18.160;2023-04-19T06:58:00;101655.69;;;5.24;77.67
76229;BME280;65021;53.174;18.160;2023-04-19T07:00:26;101648.92;;;5.29;78.29
76229;BME280;65021;53.174;18.160;2023-04-19T07:02:53;101648.67;;;5.32;78.37
76229;BME280;65021;53.174;18.160;2023-04-19T07:05:19;101658.02;;;5.39;78.01
76229;BME280;65021;53.174;18.160;2023-04-19T07:07:46;101661.02;;;5.41;78.55
76229;BME280;65021;53.174;18.160;2023-04-19T07:10:12;101661.98;;;5.35;78.66
76229;BME280;65021;53.174;18.160;2023-04-19T07:12:39;101667.61;;;5.34;78.35
76229;BME280;65021;53.174;18.160;2023-04-19T07:15:07;101662.73;;;5.30;78.97
76229;BME280;65021;53.174;18.160;2023-04-19T07:17:34;101655.16;;;5.26;78.91
76229;BME280;65021;53.174;18.160;2023-04-19T07:20:03;101655.73;;;5.22;78.60
76229;BME280;65021;53.174;18.160;2023-04-19T07:22:31;101657.45;;;5.19;78.68
76229;BME280;65021;53.174;18.160;2023-04-19T07:24:58;101661.52;;;5.18;78.46
76229;BME280;65021;53.174;18.160;2023-04-19T07:27:24;101662.73;;;5.17;78.55
76229;BME280;65021;53.174;18.160;2023-04-19T07:29:51;101662.52;;;5.14;78.87
76229;BME280;65021;53.174;18.160;2023-04-19T07:32:18;101655.42;;;5.12;78.82
76229;BME280;65021;53.174;18.160;2023-04-19T07:34:46;101651.01;;;5.11;79.35
76229;BME280;65021;53.174;18.160;2023-04-19T07:37:13;101645.01;;;5.13;78.91
76229;BME280;65021;53.174;18.160;2023-04-19T07:39:39;101639.34;;;5.17;78.90
76229;BME280;65021;53.174;18.160;2023-04-19T07:42:15;101630.52;;;5.22;79.34
76229;BME280;65021;53.174;18.160;2023-04-19T07:44:41;101620.41;;;5.25;79.10
76229;BME280;65021;53.174;18.160;2023-04-19T07:47:08;101631.98;;;5.24;79.78
76229;BME280;65021;53.174;18.160;2023-04-19T07:49:34;101629.40;;;5.24;79.78
76229;BME280;65021;53.174;18.160;2023-04-19T07:52:01;101618.85;;;5.25;79.98
76229;BME280;65021;53.174;18.160;2023-04-19T07:54:28;101615.11;;;5.26;80.33
76229;BME280;65021;53.174;18.160;2023-04-19T07:56:55;101619.02;;;5.28;79.97
76229;BME280;65021;53.174;18.160;2023-04-19T07:59:24;101619.80;;;5.31;79.70
76229;BME280;65021;53.174;18.160;2023-04-19T08:01:51;101617.05;;;5.33;80.07
76229;BME280;65021;53.174;18.160;2023-04-19T08:04:17;101616.46;;;5.33;80.82
76229;BME280;65021;53.174;18.160;2023-04-19T08:06:48;101609.92;;;5.36;80.47
76229;BME280;65021;53.174;18.160;2023-04-19T08:09:14;101607.94;;;5.44;80.27
76229;BME280;65021;53.174;18.160;2023-04-19T08:11:41;101601.73;;;5.53;80.48
76229;BME280;65021;53.174;18.160;2023-04-19T08:14:08;101603.65;;;5.60;80.73
76229;BME280;65021;53.174;18.160;2023-04-19T08:16:35;101598.50;;;5.65;80.30
76229;BME280;65021;53.174;18.160;2023-04-19T08:19:05;101597.90;;;5.68;80.26
76229;BME280;65021;53.174;18.160;2023-04-19T08:21:46;101595.98;;;5.75;80.05
76229;BME280;65021;53.174;18.160;2023-04-19T08:24:13;101591.50;;;5.77;80.50
76229;BME280;65021;53.174;18.160;2023-04-19T08:26:43;101586.55;;;5.77;80.25
76229;BME280;65021;53.174;18.160;2023-04-19T08:29:13;101586.98;;;5.79;80.13
76229;BME280;65021;53.174;18.160;2023-04-19T08:31:45;101593.04;;;5.83;80.03
76229;BME280;65021;53.174;18.160;2023-04-19T08:34:12;101592.66;;;5.89;79.95
76229;BME280;65021;53.174;18.160;2023-04-19T08:36:38;101595.65;;;5.99;79.48
76229;BME280;65021;53.174;18.160;2023-04-19T08:39:05;101594.09;;;6.09;79.26
76229;BME280;65021;53.174;18.160;2023-04-19T08:41:33;101593.85;;;6.15;79.21
76229;BME280;65021;53.174;18.160;2023-04-19T08:44:00;101592.91;;;6.19;78.92
76229;BME280;65021;53.174;18.160;2023-04-19T08:46:29;101590.75;;;6.24;78.72
76229;BME280;65021;53.174;18.160;2023-04-19T08:48:58;101590.56;;;6.25;78.36
76229;BME280;65021;53.174;18.160;2023-04-19T08:51:25;101590.67;;;6.25;78.17
76229;BME280;65021;53.174;18.160;2023-04-19T08:53:54;101589.02;;;6.23;78.24
76229;BME280;65021;53.174;18.160;2023-04-19T08:56:21;101579.09;;;6.26;78.53
76229;BME280;65021;53.174;18.160;2023-04-19T08:58:49;101577.33;;;6.27;78.37
76229;BME280;65021;53.174;18.160;2023-04-19T09:01:15;101573.13;;;6.31;78.47
76229;BME280;65021;53.174;18.160;2023-04-19T09:03:45;101571.69;;;6.38;78.45
76229;BME280;65021;53.174;18.160;2023-04-19T09:06:12;101563.27;;;6.46;78.13
76229;BME280;65021;53.174;18.160;2023-04-19T09:08:39;101561.06;;;6.51;78.09
76229;BME280;65021;53.174;18.160;2023-04-19T09:11:07;101563.30;;;6.56;77.79
76229;BME280;65021;53.174;18.160;2023-04-19T09:13:34;101565.42;;;6.61;77.61
76229;BME280;65021;53.174;18.160;2023-04-19T09:16:04;101559.89;;;6.66;77.49
76229;BME280;65021;53.174;18.160;2023-04-19T09:18:31;101557.80;;;6.70;77.51
76229;BME280;65021;53.174;18.160;2023-04-19T09:20:57;101556.08;;;6.76;77.44
76229;BME280;65021;53.174;18.160;2023-04-19T09:23:26;101557.00;;;6.84;77.09
76229;BME280;65021;53.174;18.160;2023-04-19T09:25:57;101551.22;;;6.91;76.77
76229;BME280;65021;53.174;18.160;2023-04-19T09:28:29;101554.02;;;6.98;76.68
76229;BME280;65021;53.174;18.160;2023-04-19T09:30:56;101547.23;;;7.02;76.61
76229;BME280;65021;53.174;18.160;2023-04-19T09:33:36;101548.51;;;7.07;76.53
76229;BME280;65021;53.174;18.160;2023-04-19T09:36:06;101548.85;;;7.14;76.27
76229;BME280;65021;53.174;18.160;2023-04-19T09:38:48;101546.45;;;7.21;75.73
76229;BME280;65021;53.174;18.160;2023-04-19T09:41:15;101547.52;;;7.30;75.70
76229;BME280;65021;53.174;18.160;2023-04-19T09:43:45;101548.96;;;7.42;75.48
76229;BME280;65021;53.174;18.160;2023-04-19T09:46:34;101547.82;;;7.56;75.17
76229;BME280;65021;53.174;18.160;2023-04-19T09:49:21;101548.20;;;7.67;75.05
76229;BME280;65021;53.174;18.160;2023-04-19T09:51:55;101546.14;;;7.76;74.75
76229;BME280;65021;53.174;18.160;2023-04-19T09:54:23;101538.98;;;7.86;74.59
76229;BME280;65021;53.174;18.160;2023-04-19T09:56:50;101544.22;;;7.94;74.59
76229;BME280;65021;53.174;18.160;2023-04-19T09:59:18;101541.42;;;7.98;72.82
76229;BME280;65021;53.174;18.160;2023-04-19T10:01:46;101535.89;;;8.03;72.83
76229;BME280;65021;53.174;18.160;2023-04-19T10:04:14;101537.86;;;8.11;72.93
76229;BME280;65021;53.174;18.160;2023-04-19T10:06:51;101531.55;;;8.15;72.45
76229;BME280;65021;53.174;18.160;2023-04-19T10:09:20;101530.67;;;8.18;71.57
76229;BME280;65021;53.174;18.160;2023-04-19T10:11:48;101530.59;;;8.24;71.27
76229;BME280;65021;53.174;18.160;2023-04-19T10:14:20;101527.79;;;8.26;71.74
76229;BME280;65021;53.174;18.160;2023-04-19T10:16:47;101526.85;;;8.25;71.44
76229;BME280;65021;53.174;18.160;2023-04-19T10:19:17;101522.64;;;8.29;71.21
76229;BME280;65021;53.174;18.160;2023-04-19T10:21:46;101525.67;;;8.33;70.76
76229;BME280;65021;53.174;18.160;2023-04-19T10:24:14;101530.48;;;8.34;70.45
76229;BME280;65021;53.174;18.160;2023-04-19T10:27:10;101524.14;;;8.36;70.18
76229;BME280;65021;53.174;18.160;2023-04-19T10:32:25;101522.05;;;8.47;69.52
76229;BME280;65021;53.174;18.160;2023-04-19T10:34:52;101524.04;;;8.59;69.28
76229;BME280;65021;53.174;18.160;2023-04-19T10:37:24;101517.41;;;8.72;69.20
76229;BME280;65021;53.174;18.160;2023-04-19T10:39:51;101518.48;;;8.91;69.71
76229;BME280;65021;53.174;18.160;2023-04-19T10:42:18;101520.36;;;9.05;69.22
76229;BME280;65021;53.174;18.160;2023-04-19T10:47:50;101531.90;;;9.12;68.25
76229;BME280;65021;53.174;18.160;2023-04-19T10:50:17;101526.16;;;9.17;68.60
76229;BME280;65021;53.174;18.160;2023-04-19T10:52:44;101532.55;;;9.22;68.40
76229;BME280;65021;53.174;18.160;2023-04-19T10:55:14;101526.45;;;8.96;68.13
76229;BME280;65021;53.174;18.160;2023-04-19T11:00:28;101522.23;;;8.67;69.70
76229;BME280;65021;53.174;18.160;2023-04-19T11:06:15;101537.09;;;8.59;69.85
76229;BME280;65021;53.174;18.160;2023-04-19T11:08:43;101536.96;;;8.46;69.82
76229;BME280;65021;53.174;18.160;2023-04-19T11:11:10;101540.38;;;8.30;70.20
76229;BME280;65021;53.174;18.160;2023-04-19T11:13:36;101547.32;;;8.19;70.61
76229;BME280;65021;53.174;18.160;2023-04-19T11:16:09;101536.35;;;8.04;70.81
76229;BME280;65021;53.174;18.160;2023-04-19T11:18:36;101551.41;;;7.87;71.06
76229;BME280;65021;53.174;18.160;2023-04-19T11:21:04;101550.06;;;7.77;71.04
76229;BME280;65021;53.174;18.160;2023-04-19T11:23:30;101554.55;;;7.65;71.52
76229;BME280;65021;53.174;18.160;2023-04-19T11:25:57;101550.00;;;7.56;71.86
76229;BME280;65021;53.174;18.160;2023-04-19T11:28:24;101558.06;;;7.50;72.02
76229;BME280;65021;53.174;18.160;2023-04-19T11:30:51;101553.91;;;7.48;72.29
76229;BME280;65021;53.174;18.160;2023-04-19T11:33:18;101551.16;;;7.46;72.05
76229;BME280;65021;53.174;18.160;2023-04-19T11:35:50;101554.02;;;7.43;72.86
76229;BME280;65021;53.174;18.160;2023-04-19T11:38:16;101559.71;;;7.38;73.11
76229;BME280;65021;53.174;18.160;2023-04-19T11:40:43;101555.02;;;7.36;73.21
76229;BME280;65021;53.174;18.160;2023-04-19T11:43:10;101548.68;;;7.36;73.26
76229;BME280;65021;53.174;18.160;2023-04-19T11:45:37;101555.77;;;7.32;73.36
76229;BME280;65021;53.174;18.160;2023-04-19T11:48:04;101556.02;;;7.23;73.44
76229;BME280;65021;53.174;18.160;2023-04-19T11:50:39;101559.36;;;7.17;73.50
76229;BME280;65021;53.174;18.160;2023-04-19T11:53:22;101553.94;;;7.12;73.51
76229;BME280;65021;53.174;18.160;2023-04-19T11:55:57;101551.92;;;7.09;73.65
76229;BME280;65021;53.174;18.160;2023-04-19T12:01:09;101566.09;;;7.11;74.22
76229;BME280;65021;53.174;18.160;2023-04-19T12:03:46;101561.90;;;7.13;74.41
76229;BME280;65021;53.174;18.160;2023-04-19T12:06:25;101566.11;;;7.16;74.16
76229;BME280;65021;53.174;18.160;2023-04-19T12:08:54;101566.39;;;7.19;74.13
76229;BME280;65021;53.174;18.160;2023-04-19T12:11:22;101563.70;;;7.24;74.39
76229;BME280;65021;53.174;18.160;2023-04-19T12:14:11;101560.89;;;7.27;74.76
76229;BME280;65021;53.174;18.160;2023-04-19T12:16:39;101562.28;;;7.21;74.94
76229;BME280;65021;53.174;18.160;2023-04-19T12:19:13;101566.83;;;7.20;74.82
76229;BME280;65021;53.174;18.160;2023-04-19T12:21:41;101569.16;;;7.14;75.32
76229;BME280;65021;53.174;18.160;2023-04-19T12:24:07;101570.42;;;7.10;75.46
76229;BME280;65021;53.174;18.160;2023-04-19T12:26:34;101570.59;;;7.10;75.35
76229;BME280;65021;53.174;18.160;2023-04-19T12:29:02;101568.03;;;7.10;75.53
76229;BME280;65021;53.174;18.160;2023-04-19T12:31:31;101570.38;;;7.15;75.61
76229;BME280;65021;53.174;18.160;2023-04-19T12:33:58;101566.36;;;7.23;75.84
76229;BME280;65021;53.174;18.160;2023-04-19T12:36:25;101565.44;;;7.43;75.53
76229;BME280;65021;53.174;18.160;2023-04-19T12:38:52;101568.95;;;7.50;75.50
76229;BME280;65021;53.174;18.160;2023-04-19T12:41:18;101573.98;;;7.52;75.34
76229;BME280;65021;53.174;18.160;2023-04-19T12:43:45;101575.65;;;7.55;74.82
76229;BME280;65021;53.174;18.160;2023-04-19T12:46:11;101570.16;;;7.54;74.89
76229;BME280;65021;53.174;18.160;2023-04-19T12:48:38;101570.61;;;7.62;74.82
76229;BME280;65021;53.174;18.160;2023-04-19T12:51:05;101569.17;;;7.75;74.75
76229;BME280;65021;53.174;18.160;2023-04-19T12:53:32;101569.96;;;7.84;74.51
76229;BME280;65021;53.174;18.160;2023-04-19T12:55:58;101573.13;;;7.84;74.55
76229;BME280;65021;53.174;18.160;2023-04-19T12:58:25;101575.27;;;7.78;74.01
76229;BME280;65021;53.174;18.160;2023-04-19T13:00:53;101571.48;;;7.72;74.12
76229;BME280;65021;53.174;18.160;2023-04-19T13:03:19;101572.42;;;7.69;74.32
76229;BME280;65021;53.174;18.160;2023-04-19T13:05:46;101570.91;;;7.74;74.38
76229;BME280;65021;53.174;18.160;2023-04-19T13:08:14;101569.67;;;7.73;74.40